Time,TemperatureF,DewpointF,PressureIn,WindDirection,WindDirectionDegrees,WindSpeedMPH,WindSpeedGustMPH,Humidity,HourlyPrecipIn,Conditions,Clouds,dailyrainin,SoftwareType,DateUTC
2013-05-01 00:01:00,56.1,53.0,30.06,East,94,1.0,-999.0,90,-99.99,,,0.00,weatherlink.com 1.10,2013-05-01 04:01:00,
2013-05-01 00:16:00,55.8,53.0,30.06,East,98,0.0,-999.0,91,-99.99,,,0.00,weatherlink.com 1.10,2013-05-01 04:16:00,
2013-05-01 00:31:00,55.7,53.0,30.07,East,101,1.0,-999.0,91,-99.99,,,0.00,weatherlink.com 1.10,2013-05-01 04:31:00,
2013-05-01 00:46:00,55.8,53.0,30.07,ESE,103,0.0,-999.0,91,-99.99,,,0.00,weatherlink.com 1.10,2013-05-01 04:46:00,
2013-05-01 01:01:00,56.0,54.0,30.07,East,96,0.0,-999.0,91,-99.99,,,0.00,weatherlink.com 1.10,2013-05-01 05:01:00,
2013-05-01 01:16:00,55.8,53.0,30.08,East,86,0.0,-999.0,91,-99.99,,,0.00,weatherlink.com 1.10,2013-05-01 05:16:00,
2013-05-01 01:31:00,55.6,53.0,30.08,ESE,105,0.0,-999.0,91,-99.99,,,0.00,weatherlink.com 1.10,2013-05-01 05:31:00,
2013-05-01 01:46:00,55.6,53.0,30.08,East,96,0.0,-999.0,92,-99.99,,,0.00,weatherlink.com 1.10,2013-05-01 05:46:00,
2013-05-01 02:01:00,55.8,54.0,30.08,East,94,0.0,-999.0,92,-99.99,,,0.00,weatherlink.com 1.10,2013-05-01 06:01:00,
2013-05-01 02:16:00,55.5,53.0,30.08,ESE,102,0.0,-999.0,92,-99.99,,,0.00,weatherlink.com 1.10,2013-05-01 06:16:00,
2013-05-01 02:31:00,55.0,53.0,30.08,ESE,102,0.0,-999.0,92,-99.99,,,0.00,weatherlink.com 1.10,2013-05-01 06:31:00,
2013-05-01 02:46:00,54.8,53.0,30.08,ESE,102,0.0,-999.0,93,-99.99,,,0.00,weatherlink.com 1.10,2013-05-01 06:46:00,
2013-05-01 03:01:00,54.9,53.0,30.08,ESE,102,0.0,-999.0,94,-99.99,,,0.00,weatherlink.com 1.10,2013-05-01 07:01:00,
2013-05-01 03:16:00,54.7,53.0,30.08,East,101,0.0,-999.0,94,-99.99,,,0.00,weatherlink.com 1.10,2013-05-01 07:16:00,
2013-05-01 03:31:00,54.6,53.0,30.09,East,101,0.0,-999.0,94,-99.99,,,0.00,weatherlink.com 1.10,2013-05-01 07:31:00,
2013-05-01 03:46:00,54.2,53.0,30.09,ESE,102,0.0,-999.0,94,-99.99,,,0.00,weatherlink.com 1.10,2013-05-01 07:46:00,
2013-05-01 04:01:00,53.4,52.0,30.09,ESE,102,0.0,-999.0,94,-99.99,,,0.00,weatherlink.com 1.10,2013-05-01 08:01:00,
2013-05-01 04:16:00,53.0,52.0,30.10,East,101,0.0,-999.0,95,-99.99,,,0.00,weatherlink.com 1.10,2013-05-01 08:16:00,
2013-05-01 04:31:00,53.0,52.0,30.10,East,101,0.0,-999.0,96,-99.99,,,0.00,weatherlink.com 1.10,2013-05-01 08:31:00,
2013-05-01 04:46:00,53.0,52.0,30.10,East,101,0.0,-999.0,96,-99.99,,,0.00,weatherlink.com 1.10,2013-05-01 08:46:00,
2013-05-01 05:01:00,52.9,52.0,30.11,ESE,102,0.0,-999.0,96,-99.99,,,0.00,weatherlink.com 1.10,2013-05-01 09:01:00,
2013-05-01 05:16:00,53.2,52.0,30.11,ESE,102,0.0,-999.0,96,-99.99,,,0.00,weatherlink.com 1.10,2013-05-01 09:16:00,
2013-05-01 05:31:00,53.4,52.0,30.12,East,101,0.0,-999.0,96,-99.99,,,0.00,weatherlink.com 1.10,2013-05-01 09:31:00,
2013-05-01 05:46:00,53.4,52.0,30.12,ESE,102,0.0,-999.0,96,-99.99,,,0.00,weatherlink.com 1.10,2013-05-01 09:46:00,
2013-05-01 06:01:00,53.5,52.0,30.12,ESE,102,0.0,-999.0,96,-99.99,,,0.00,weatherlink.com 1.10,2013-05-01 10:01:00,
2013-05-01 06:16:00,53.5,52.0,30.13,East,101,0.0,-999.0,96,-99.99,,,0.00,weatherlink.com 1.10,2013-05-01 10:16:00,
2013-05-01 06:31:00,53.4,52.0,30.14,East,101,0.0,-999.0,96,-99.99,,,0.00,weatherlink.com 1.10,2013-05-01 10:31:00,
2013-05-01 06:46:00,53.3,52.0,30.15,ESE,102,0.0,-999.0,96,-99.99,,,0.00,weatherlink.com 1.10,2013-05-01 10:46:00,
2013-05-01 07:01:00,54.1,53.0,30.15,East,101,0.0,-999.0,96,-99.99,,,0.00,weatherlink.com 1.10,2013-05-01 11:01:00,
2013-05-01 07:16:00,54.7,53.0,30.16,ESE,108,0.0,-999.0,95,-99.99,,,0.00,weatherlink.com 1.10,2013-05-01 11:16:00,
2013-05-01 07:31:00,55.9,55.0,30.17,ESE,105,0.0,-999.0,95,-99.99,,,0.00,weatherlink.com 1.10,2013-05-01 11:31:00,
2013-05-01 07:46:00,58.3,56.0,30.18,ESE,105,0.0,-999.0,92,-99.99,,,0.00,weatherlink.com 1.10,2013-05-01 11:46:00,
2013-05-01 08:01:00,60.1,57.0,30.18,ESE,105,0.0,-999.0,88,-99.99,,,0.00,weatherlink.com 1.10,2013-05-01 12:01:00,
2013-05-01 08:16:00,61.8,57.0,30.19,SE,138,0.0,-999.0,85,-99.99,,,0.00,weatherlink.com 1.10,2013-05-01 12:16:00,
2013-05-01 08:31:00,63.1,58.0,30.19,ESE,108,1.0,-999.0,82,-99.99,,,0.00,weatherlink.com 1.10,2013-05-01 12:31:00,
2013-05-01 08:46:00,64.4,58.0,30.19,SSE,166,4.0,-999.0,79,-99.99,,,0.00,weatherlink.com 1.10,2013-05-01 12:46:00,
2013-05-01 09:01:00,65.7,58.0,30.19,South,171,6.0,-999.0,75,-99.99,,,0.00,weatherlink.com 1.10,2013-05-01 13:01:00,
2013-05-01 09:16:00,66.3,58.0,30.20,East,96,3.0,-999.0,75,-99.99,,,0.00,weatherlink.com 1.10,2013-05-01 13:16:00,
2013-05-01 09:31:00,67.3,58.0,30.20,East,96,2.0,-999.0,73,-99.99,,,0.00,weatherlink.com 1.10,2013-05-01 13:31:00,
2013-05-01 09:46:00,67.6,59.0,30.20,ENE,62,4.0,-999.0,73,-99.99,,,0.00,weatherlink.com 1.10,2013-05-01 13:46:00,
2013-05-01 10:01:00,68.0,59.0,30.20,SSW,210,1.0,-999.0,72,-99.99,,,0.00,weatherlink.com 1.10,2013-05-01 14:01:00,
2013-05-01 10:16:00,69.3,59.0,30.20,SE,129,1.0,-999.0,70,-99.99,,,0.00,weatherlink.com 1.10,2013-05-01 14:16:00,
2013-05-01 10:31:00,69.2,59.0,30.21,ESE,114,5.0,-999.0,70,-99.99,,,0.00,weatherlink.com 1.10,2013-05-01 14:31:00,
2013-05-01 10:46:00,69.9,60.0,30.21,South,173,4.0,-999.0,70,-99.99,,,0.00,weatherlink.com 1.10,2013-05-01 14:46:00,
2013-05-01 11:01:00,70.9,60.0,30.21,ESE,110,3.0,-999.0,69,-99.99,,,0.00,weatherlink.com 1.10,2013-05-01 15:01:00,
2013-05-01 11:16:00,71.0,60.0,30.20,ESE,120,3.0,-999.0,69,-99.99,,,0.00,weatherlink.com 1.10,2013-05-01 15:16:00,
2013-05-01 11:31:00,72.8,60.0,30.21,East,83,3.0,-999.0,65,-99.99,,,0.00,weatherlink.com 1.10,2013-05-01 15:31:00,
2013-05-01 11:46:00,73.1,60.0,30.20,SW,233,0.0,-999.0,64,-99.99,,,0.00,weatherlink.com 1.10,2013-05-01 15:46:00,
2013-05-01 12:01:00,74.3,61.0,30.20,SE,130,2.0,-999.0,64,-99.99,,,0.00,weatherlink.com 1.10,2013-05-01 16:01:00,
2013-05-01 12:16:00,75.0,61.0,30.20,ESE,120,3.0,-999.0,63,-99.99,,,0.00,weatherlink.com 1.10,2013-05-01 16:16:00,
2013-05-01 12:31:00,75.4,61.0,30.20,ESE,110,4.0,-999.0,62,-99.99,,,0.00,weatherlink.com 1.10,2013-05-01 16:31:00,
2013-05-01 12:46:00,75.1,61.0,30.20,SSE,161,5.0,-999.0,62,-99.99,,,0.00,weatherlink.com 1.10,2013-05-01 16:46:00,
2013-05-01 13:01:00,75.3,62.0,30.20,East,94,6.0,-999.0,63,-99.99,,,0.00,weatherlink.com 1.10,2013-05-01 17:01:00,
2013-05-01 13:16:00,74.9,62.0,30.20,East,96,2.0,-999.0,64,-99.99,,,0.00,weatherlink.com 1.10,2013-05-01 17:16:00,
2013-05-01 13:31:00,75.2,61.0,30.20,East,94,6.0,-999.0,62,-99.99,,,0.00,weatherlink.com 1.10,2013-05-01 17:31:00,
2013-05-01 13:46:00,74.4,61.0,30.20,East,81,5.0,-999.0,64,-99.99,,,0.00,weatherlink.com 1.10,2013-05-01 17:46:00,
2013-05-01 14:01:00,74.3,61.0,30.20,ESE,105,5.0,-999.0,63,-99.99,,,0.00,weatherlink.com 1.10,2013-05-01 18:01:00,
2013-05-01 14:16:00,76.0,62.0,30.20,ESE,102,5.0,-999.0,62,-99.99,,,0.00,weatherlink.com 1.10,2013-05-01 18:16:00,
2013-05-01 14:31:00,76.8,63.0,30.19,East,94,5.0,-999.0,62,-99.99,,,0.00,weatherlink.com 1.10,2013-05-01 18:31:00,
2013-05-01 14:46:00,77.6,62.0,30.19,East,89,7.0,-999.0,58,-99.99,,,0.00,weatherlink.com 1.10,2013-05-01 18:46:00,
2013-05-01 15:01:00,79.0,63.0,30.19,East,101,10.0,-999.0,58,-99.99,,,0.00,weatherlink.com 1.10,2013-05-01 19:01:00,
2013-05-01 15:16:00,79.1,61.0,30.19,East,84,3.0,-999.0,54,-99.99,,,0.00,weatherlink.com 1.10,2013-05-01 19:16:00,
2013-05-01 15:31:00,79.2,58.0,30.19,ESE,119,6.0,-999.0,49,-99.99,,,0.00,weatherlink.com 1.10,2013-05-01 19:31:00,
2013-05-01 15:46:00,79.6,59.0,30.19,East,90,4.0,-999.0,50,-99.99,,,0.00,weatherlink.com 1.10,2013-05-01 19:46:00,
2013-05-01 16:01:00,79.3,60.0,30.19,ENE,65,9.0,-999.0,52,-99.99,,,0.00,weatherlink.com 1.10,2013-05-01 20:01:00,
2013-05-01 16:16:00,78.6,60.0,30.19,East,94,4.0,-999.0,54,-99.99,,,0.00,weatherlink.com 1.10,2013-05-01 20:16:00,
2013-05-01 16:31:00,79.0,60.0,30.19,ESE,106,5.0,-999.0,53,-99.99,,,0.00,weatherlink.com 1.10,2013-05-01 20:31:00,
2013-05-01 16:46:00,78.8,60.0,30.18,ESE,105,5.0,-999.0,52,-99.99,,,0.00,weatherlink.com 1.10,2013-05-01 20:46:00,
2013-05-01 17:01:00,78.2,60.0,30.19,East,85,6.0,-999.0,53,-99.99,,,0.00,weatherlink.com 1.10,2013-05-01 21:01:00,
2013-05-01 17:16:00,76.5,59.0,30.19,East,81,8.0,-999.0,55,-99.99,,,0.00,weatherlink.com 1.10,2013-05-01 21:16:00,
2013-05-01 17:31:00,75.9,60.0,30.19,East,98,11.0,-999.0,58,-99.99,,,0.00,weatherlink.com 1.10,2013-05-01 21:31:00,
2013-05-01 17:46:00,75.1,59.0,30.20,SE,143,5.0,-999.0,58,-99.99,,,0.00,weatherlink.com 1.10,2013-05-01 21:46:00,
2013-05-01 18:01:00,74.0,60.0,30.20,SE,134,8.0,-999.0,61,-99.99,,,0.00,weatherlink.com 1.10,2013-05-01 22:01:00,
2013-05-01 18:16:00,70.7,58.0,30.20,East,86,5.0,-999.0,65,-99.99,,,0.00,weatherlink.com 1.10,2013-05-01 22:16:00,
2013-05-01 18:31:00,68.5,57.0,30.20,East,92,5.0,-999.0,66,-99.99,,,0.00,weatherlink.com 1.10,2013-05-01 22:31:00,
2013-05-01 18:46:00,67.3,56.0,30.20,East,99,11.0,-999.0,68,-99.99,,,0.00,weatherlink.com 1.10,2013-05-01 22:46:00,
2013-05-01 19:01:00,67.1,57.0,30.20,SE,130,5.0,-999.0,69,-99.99,,,0.00,weatherlink.com 1.10,2013-05-01 23:01:00,
2013-05-01 19:16:00,67.1,56.0,30.20,East,84,6.0,-999.0,68,-99.99,,,0.00,weatherlink.com 1.10,2013-05-01 23:16:00,
2013-05-01 19:31:00,67.1,57.0,30.20,ESE,111,4.0,-999.0,69,-99.99,,,0.00,weatherlink.com 1.10,2013-05-01 23:31:00,
2013-05-01 19:46:00,67.1,56.0,30.20,East,89,6.0,-999.0,68,-99.99,,,0.00,weatherlink.com 1.10,2013-05-01 23:46:00,
2013-05-01 20:01:00,65.8,56.0,30.20,ESE,111,5.0,-999.0,70,-99.99,,,0.00,weatherlink.com 1.10,2013-05-02 00:01:00,
2013-05-01 20:16:00,64.8,55.0,30.20,East,95,13.0,-999.0,71,-99.99,,,0.00,weatherlink.com 1.10,2013-05-02 00:16:00,
2013-05-01 20:31:00,63.4,55.0,30.21,ESE,108,8.0,-999.0,73,-99.99,,,0.00,weatherlink.com 1.10,2013-05-02 00:31:00,
2013-05-01 20:46:00,62.6,54.0,30.21,ESE,104,5.0,-999.0,74,-99.99,,,0.00,weatherlink.com 1.10,2013-05-02 00:46:00,
2013-05-01 21:01:00,61.9,54.0,30.21,East,96,7.0,-999.0,75,-99.99,,,0.00,weatherlink.com 1.10,2013-05-02 01:01:00,
2013-05-01 21:16:00,61.2,53.0,30.21,ENE,76,7.0,-999.0,75,-99.99,,,0.00,weatherlink.com 1.10,2013-05-02 01:16:00,
2013-05-01 21:31:00,60.8,53.0,30.21,East,96,6.0,-999.0,75,-99.99,,,0.00,weatherlink.com 1.10,2013-05-02 01:31:00,
2013-05-01 21:46:00,60.3,53.0,30.22,ESE,103,5.0,-999.0,76,-99.99,,,0.00,weatherlink.com 1.10,2013-05-02 01:46:00,
2013-05-01 22:01:00,60.2,53.0,30.22,SSE,158,3.0,-999.0,76,-99.99,,,0.00,weatherlink.com 1.10,2013-05-02 02:01:00,
2013-05-01 22:16:00,59.9,52.0,30.23,SE,124,2.0,-999.0,75,-99.99,,,0.00,weatherlink.com 1.10,2013-05-02 02:16:00,
2013-05-01 22:31:00,59.1,52.0,30.23,ESE,106,4.0,-999.0,76,-99.99,,,0.00,weatherlink.com 1.10,2013-05-02 02:31:00,
2013-05-01 22:46:00,58.5,51.0,30.23,ESE,113,4.0,-999.0,77,-99.99,,,0.00,weatherlink.com 1.10,2013-05-02 02:46:00,
2013-05-01 23:01:00,58.0,51.0,30.23,East,89,4.0,-999.0,78,-99.99,,,0.00,weatherlink.com 1.10,2013-05-02 03:01:00,
2013-05-01 23:16:00,57.7,51.0,30.23,East,92,2.0,-999.0,79,-99.99,,,0.00,weatherlink.com 1.10,2013-05-02 03:16:00,
2013-05-01 23:31:00,57.2,51.0,30.22,SE,130,0.0,-999.0,80,-99.99,,,0.00,weatherlink.com 1.10,2013-05-02 03:31:00,
2013-05-01 23:46:00,57.0,51.0,30.22,East,93,3.0,-999.0,80,-99.99,,,0.00,weatherlink.com 1.10,2013-05-02 03:46:00,